createdAt,value
2023-01-28T00:01:33.158Z,5.95
2023-01-28T00:03:59.934Z,5.65
2023-01-28T00:06:26.681Z,6.25
2023-01-28T00:08:54.836Z,6.60
2023-01-28T00:11:22.571Z,9.02
2023-01-28T00:13:49.270Z,7.90
2023-01-28T00:16:16.163Z,6.53
2023-01-28T00:18:42.932Z,6.35
2023-01-28T00:21:09.693Z,6.25
2023-01-28T00:23:36.464Z,7.18
2023-01-28T00:26:03.178Z,6.35
2023-01-28T00:28:30.031Z,6.63
2023-01-28T00:30:57.156Z,7.53
2023-01-28T00:33:24.047Z,6.60
2023-01-28T00:35:50.725Z,6.88
2023-01-28T00:38:18.484Z,6.43
2023-01-28T00:40:46.657Z,6.45
2023-01-28T00:43:13.545Z,6.40
2023-01-28T00:45:40.312Z,6.35
2023-01-28T00:48:07.088Z,7.28
2023-01-28T00:50:33.813Z,7.55
2023-01-28T00:53:00.661Z,7.47
2023-01-28T00:55:28.318Z,7.05
2023-01-28T00:57:55.121Z,8.13
2023-01-28T01:00:25.777Z,7.15
2023-01-28T01:02:52.514Z,7.40
2023-01-28T01:05:19.233Z,7.55
2023-01-28T01:07:45.999Z,7.85
2023-01-28T01:10:12.753Z,6.78
2023-01-28T01:12:39.490Z,7.97
2023-01-28T01:15:08.961Z,7.03
2023-01-28T01:17:37.568Z,7.10
2023-01-28T01:20:06.651Z,7.40
2023-01-28T01:22:34.762Z,7.82
2023-01-28T01:25:02.343Z,7.05
2023-01-28T01:27:29.070Z,6.60
2023-01-28T01:29:55.835Z,6.65
2023-01-28T01:32:22.637Z,6.78
2023-01-28T01:34:49.687Z,6.97
2023-01-28T01:37:16.396Z,8.07
2023-01-28T01:39:43.158Z,8.07
2023-01-28T01:42:09.865Z,7.35
2023-01-28T01:44:36.558Z,7.55
2023-01-28T01:47:03.652Z,6.45
2023-01-28T01:49:32.112Z,7.75
2023-01-28T01:51:58.848Z,6.43
2023-01-28T01:54:27.455Z,6.53
2023-01-28T01:56:56.492Z,6.45
2023-01-28T01:59:23.807Z,7.82
2023-01-28T02:01:50.541Z,7.28
2023-01-28T02:04:17.229Z,7.68
2023-01-28T02:06:45.849Z,7.43
2023-01-28T02:09:12.562Z,6.30
2023-01-28T02:11:39.288Z,6.55
2023-01-28T02:14:07.232Z,6.60
2023-01-28T02:16:34.041Z,5.88
2023-01-28T02:19:00.870Z,6.32
2023-01-28T02:21:27.793Z,6.15
2023-01-28T02:23:54.569Z,6.20
2023-01-28T02:26:21.360Z,6.25
2023-01-28T02:28:48.135Z,6.22
2023-01-28T02:31:15.979Z,6.40
2023-01-28T02:33:42.796Z,5.88
2023-01-28T02:36:09.552Z,5.97
2023-01-28T02:38:36.276Z,6.35
2023-01-28T02:41:06.961Z,6.03
2023-01-28T02:43:33.670Z,5.45
2023-01-28T02:46:24.764Z,5.30
2023-01-28T02:48:51.559Z,6.32
2023-01-28T02:51:18.209Z,5.07
2023-01-28T02:53:44.964Z,4.47
2023-01-28T02:56:11.690Z,5.10
2023-01-28T02:58:38.404Z,4.78
2023-01-28T03:01:05.285Z,4.50
2023-01-28T03:03:32.013Z,4.72
2023-01-28T03:06:06.945Z,4.55
2023-01-28T03:08:52.514Z,3.90
2023-01-28T03:11:38.349Z,4.40
2023-01-28T03:14:23.897Z,3.92
2023-01-28T03:17:09.561Z,3.80
2023-01-28T03:19:55.109Z,3.53
2023-01-28T03:22:41.242Z,3.22
2023-01-28T03:25:27.230Z,3.40
2023-01-28T03:28:12.891Z,3.55
2023-01-28T03:30:58.811Z,3.22
2023-01-28T03:33:56.645Z,2.90
2023-01-28T03:36:42.711Z,3.30
2023-01-28T03:39:17.885Z,3.25
2023-01-28T03:41:44.644Z,3.22
2023-01-28T03:44:30.742Z,3.55
2023-01-28T03:49:24.973Z,3.30
2023-01-28T03:51:51.778Z,3.60
2023-01-28T03:54:18.595Z,2.92
2023-01-28T03:56:46.280Z,3.28
2023-01-28T03:59:14.555Z,2.70
2023-01-28T04:01:41.822Z,2.80
2023-01-28T04:04:08.602Z,2.30
2023-01-28T04:06:35.436Z,2.28
2023-01-28T04:09:02.164Z,2.70
2023-01-28T04:11:36.721Z,2.20
2023-01-28T04:14:05.685Z,2.22
2023-01-28T04:16:45.217Z,2.70
2023-01-28T04:19:15.321Z,2.60
2023-01-28T04:21:42.992Z,2.72
2023-01-28T04:24:09.917Z,2.60
2023-01-28T04:26:36.664Z,2.35
2023-01-28T04:29:04.368Z,2.55
2023-01-28T04:31:33.524Z,2.47
2023-01-28T04:34:21.164Z,2.35
2023-01-28T04:36:57.864Z,2.38
2023-01-28T04:39:53.840Z,2.50
2023-01-28T04:42:28.020Z,2.63
2023-01-28T04:45:09.115Z,2.35
2023-01-28T04:47:54.143Z,2.78
2023-01-28T04:50:30.862Z,2.60
2023-01-28T04:53:17.837Z,2.78
2023-01-28T04:55:53.590Z,2.45
2023-01-28T04:58:21.855Z,2.15
2023-01-28T05:00:51.098Z,2.40
2023-01-28T05:03:18.391Z,2.70
2023-01-28T05:05:45.267Z,2.40
2023-01-28T05:08:30.119Z,2.35
2023-01-28T05:10:56.899Z,2.72
2023-01-28T05:13:23.942Z,2.17
2023-01-28T05:15:50.836Z,2.33
2023-01-28T05:18:17.583Z,2.67
2023-01-28T05:20:50.092Z,2.42
2023-01-28T05:23:16.945Z,2.60
2023-01-28T05:25:51.733Z,2.63
2023-01-28T05:28:18.598Z,2.38
2023-01-28T05:30:45.331Z,2.65
2023-01-28T05:33:12.099Z,2.60
2023-01-28T05:35:38.977Z,2.17
2023-01-28T05:38:05.791Z,2.63
2023-01-28T05:40:32.696Z,2.70
2023-01-28T05:42:59.694Z,2.70
2023-01-28T05:45:34.795Z,2.67
2023-01-28T05:48:30.838Z,2.78
2023-01-28T05:51:16.071Z,2.57
2023-01-28T05:53:45.939Z,3.05
2023-01-28T05:56:12.725Z,2.90
2023-01-28T05:58:41.243Z,2.88
2023-01-28T06:01:08.784Z,2.60
2023-01-28T06:03:40.749Z,3.17
2023-01-28T06:06:07.514Z,3.10
2023-01-28T06:08:37.303Z,3.42
2023-01-28T06:11:04.359Z,3.22
2023-01-28T06:13:33.683Z,3.60
2023-01-28T06:16:12.027Z,2.97
2023-01-28T06:18:59.480Z,3.10
2023-01-28T06:21:27.746Z,3.50
2023-01-28T06:23:57.110Z,3.53
2023-01-28T06:26:24.343Z,4.20
2023-01-28T06:28:51.537Z,3.70
2023-01-28T06:31:19.146Z,3.88
2023-01-28T06:33:46.207Z,3.60
2023-01-28T06:36:12.908Z,4.00
2023-01-28T06:38:39.623Z,4.70
2023-01-28T06:41:06.362Z,3.65
2023-01-28T06:43:33.150Z,3.75
2023-01-28T06:46:00.060Z,3.42
2023-01-28T06:48:26.837Z,3.53
2023-01-28T06:50:53.594Z,3.60
2023-01-28T06:53:20.313Z,3.13
2023-01-28T06:55:47.027Z,3.67
2023-01-28T06:58:13.670Z,3.75
2023-01-28T07:00:40.407Z,3.97
2023-01-28T07:03:07.285Z,3.75
2023-01-28T07:05:34.035Z,3.75
2023-01-28T07:08:02.252Z,3.42
2023-01-28T07:10:28.967Z,3.80
2023-01-28T07:12:55.681Z,3.78
2023-01-28T07:15:22.384Z,3.85
2023-01-28T07:17:49.138Z,3.95
2023-01-28T07:20:16.366Z,3.67
2023-01-28T07:22:43.300Z,3.03
2023-01-28T07:25:10.032Z,2.92
2023-01-28T07:27:36.753Z,2.80
2023-01-28T07:30:03.461Z,3.00
2023-01-28T07:32:30.214Z,3.30
2023-01-28T07:34:56.978Z,3.53
2023-01-28T07:37:23.773Z,3.58
2023-01-28T07:39:50.626Z,3.80
2023-01-28T07:42:18.208Z,3.90
2023-01-28T07:44:47.733Z,3.47
2023-01-28T07:47:14.446Z,3.00
2023-01-28T07:49:41.308Z,3.92
2023-01-28T07:52:08.074Z,3.78
2023-01-28T07:54:34.953Z,4.18
2023-01-28T07:57:01.637Z,4.07
2023-01-28T07:59:28.436Z,3.72
2023-01-28T08:01:55.297Z,3.70
2023-01-28T08:04:22.156Z,3.72
2023-01-28T08:06:49.076Z,3.70
2023-01-28T08:09:15.764Z,4.63
2023-01-28T08:11:42.595Z,3.67
2023-01-28T08:14:09.438Z,3.75
2023-01-28T08:16:36.165Z,4.00
2023-01-28T08:19:02.915Z,3.80
2023-01-28T08:21:29.597Z,4.20
2023-01-28T08:23:57.060Z,4.53
2023-01-28T08:26:23.845Z,4.15
2023-01-28T08:28:51.586Z,4.63
2023-01-28T08:31:18.634Z,4.80
2023-01-28T08:33:45.439Z,8.55
2023-01-28T08:36:12.175Z,7.13
2023-01-28T08:38:38.941Z,5.40
2023-01-28T08:41:05.633Z,5.45
2023-01-28T08:43:32.397Z,5.00
2023-01-28T08:45:59.132Z,5.40
2023-01-28T08:48:25.834Z,5.75
2023-01-28T08:50:52.574Z,4.78
2023-01-28T08:53:19.321Z,5.80
2023-01-28T08:55:46.034Z,4.70
2023-01-28T08:58:12.751Z,4.43
2023-01-28T09:00:39.747Z,5.65
2023-01-28T09:03:06.709Z,6.03
2023-01-28T09:05:34.137Z,4.70
2023-01-28T09:08:00.872Z,4.20
2023-01-28T09:10:27.524Z,4.88
2023-01-28T09:12:54.300Z,4.22
2023-01-28T09:15:21.016Z,5.63
2023-01-28T09:17:47.677Z,4.07
2023-01-28T09:20:14.694Z,4.15
2023-01-28T09:22:41.625Z,4.40
2023-01-28T09:25:08.470Z,5.10
2023-01-28T09:27:35.247Z,5.15
2023-01-28T09:30:01.948Z,4.55
2023-01-28T09:32:28.876Z,5.20
2023-01-28T09:34:55.572Z,6.38
2023-01-28T09:37:22.280Z,6.30
2023-01-28T09:39:48.980Z,5.53
2023-01-28T09:42:15.692Z,6.50
2023-01-28T09:44:42.412Z,6.97
2023-01-28T09:47:09.070Z,5.88
2023-01-28T09:49:35.840Z,6.63
2023-01-28T09:52:02.552Z,6.60
2023-01-28T09:54:29.261Z,5.45
2023-01-28T09:56:56.009Z,15.68
2023-01-28T09:59:22.750Z,7.13
2023-01-28T10:01:49.543Z,6.13
2023-01-28T10:04:16.504Z,8.65
2023-01-28T10:06:43.303Z,6.43
2023-01-28T10:09:10.003Z,5.75
2023-01-28T10:11:36.688Z,6.32
2023-01-28T10:14:03.380Z,6.30
2023-01-28T10:16:30.114Z,6.07
2023-01-28T10:18:56.882Z,7.57
2023-01-28T10:21:23.604Z,6.05
2023-01-28T10:23:50.333Z,6.53
2023-01-28T10:26:17.070Z,6.20
2023-01-28T10:28:43.773Z,5.97
2023-01-28T10:31:10.564Z,6.93
2023-01-28T10:33:37.398Z,8.55
2023-01-28T10:36:04.104Z,7.78
2023-01-28T10:38:30.787Z,7.97
2023-01-28T10:40:57.541Z,7.45
2023-01-28T10:43:24.270Z,26.83
2023-01-28T10:45:51.020Z,22.20
2023-01-28T10:48:17.800Z,7.60
2023-01-28T10:50:44.564Z,6.70
2023-01-28T10:53:11.292Z,7.63
2023-01-28T10:55:38.008Z,5.25
2023-01-28T10:58:04.772Z,6.25
2023-01-28T11:00:31.569Z,5.85
2023-01-28T11:02:58.318Z,7.15
2023-01-28T11:05:27.826Z,8.45
2023-01-28T11:07:54.591Z,6.72
2023-01-28T11:10:21.313Z,6.45
2023-01-28T11:12:48.018Z,6.35
2023-01-28T11:15:14.914Z,6.10
2023-01-28T11:17:41.825Z,6.75
2023-01-28T11:20:08.600Z,6.55
2023-01-28T11:22:35.328Z,6.32
2023-01-28T11:25:02.107Z,7.20
2023-01-28T11:27:28.906Z,7.22
2023-01-28T11:29:55.662Z,6.90
2023-01-28T11:32:23.349Z,7.90
2023-01-28T11:34:50.453Z,7.90
2023-01-28T11:37:17.219Z,7.45
2023-01-28T11:39:43.990Z,7.97
2023-01-28T11:42:10.716Z,6.97
2023-01-28T11:44:37.447Z,7.40
2023-01-28T11:47:04.173Z,7.68
2023-01-28T11:49:30.948Z,7.00
2023-01-28T11:51:57.789Z,6.53
2023-01-28T11:54:24.506Z,7.22
2023-01-28T11:56:51.319Z,8.10
2023-01-28T11:59:19.399Z,7.93
2023-01-28T12:01:46.143Z,7.68
2023-01-28T12:04:12.909Z,7.43
2023-01-28T12:06:40.455Z,8.77
2023-01-28T12:09:07.564Z,8.18
2023-01-28T12:11:53.004Z,9.75
2023-01-28T12:14:19.795Z,11.15
2023-01-28T12:16:46.582Z,11.68
2023-01-28T12:19:13.383Z,12.07
2023-01-28T12:21:40.164Z,11.65
2023-01-28T12:24:06.893Z,11.80
2023-01-28T12:26:35.658Z,12.23
2023-01-28T12:29:02.326Z,11.88
2023-01-28T12:31:29.925Z,11.98
2023-01-28T12:33:56.803Z,11.65
2023-01-28T12:36:23.498Z,11.30
2023-01-28T12:38:50.267Z,11.57
2023-01-28T12:41:16.962Z,11.52
2023-01-28T12:43:44.168Z,10.60
2023-01-28T12:46:10.943Z,10.60
2023-01-28T12:48:37.642Z,11.57
2023-01-28T12:51:04.369Z,11.05
2023-01-28T12:53:31.229Z,10.80
2023-01-28T12:55:57.912Z,10.23
2023-01-28T12:58:25.264Z,10.48
2023-01-28T13:00:51.993Z,10.05
2023-01-28T13:03:18.763Z,10.20
2023-01-28T13:05:45.882Z,10.02
2023-01-28T13:08:12.590Z,10.40
2023-01-28T13:10:39.274Z,9.23
2023-01-28T13:13:06.036Z,10.15
2023-01-28T13:15:32.729Z,8.85
2023-01-28T13:17:59.481Z,9.88
2023-01-28T13:20:26.221Z,9.23
2023-01-28T13:22:52.900Z,9.05
2023-01-28T13:25:19.839Z,9.32
2023-01-28T13:27:46.544Z,8.80
2023-01-28T13:30:13.246Z,8.63
2023-01-28T13:32:39.972Z,69.18
2023-01-28T13:35:06.735Z,9.13
2023-01-28T13:37:33.417Z,7.72
2023-01-28T13:40:00.233Z,7.82
2023-01-28T13:42:26.993Z,8.52
2023-01-28T13:44:53.812Z,8.75
2023-01-28T13:47:21.758Z,10.73
2023-01-28T13:49:48.495Z,9.32
2023-01-28T13:52:15.265Z,10.60
2023-01-28T13:54:41.970Z,9.38
2023-01-28T13:57:08.665Z,10.07
2023-01-28T13:59:35.429Z,9.50
2023-01-28T14:02:02.119Z,9.65
2023-01-28T14:04:28.861Z,9.93
2023-01-28T14:06:55.582Z,9.65
2023-01-28T14:09:22.360Z,9.90
2023-01-28T14:11:49.105Z,10.95
2023-01-28T14:14:15.809Z,9.50
2023-01-28T14:16:42.600Z,9.25
2023-01-28T14:19:10.153Z,10.65
2023-01-28T14:21:36.945Z,9.70
2023-01-28T14:24:03.813Z,11.27
2023-01-28T14:26:32.808Z,10.07
2023-01-28T14:28:59.549Z,9.98
2023-01-28T14:31:26.343Z,10.63
2023-01-28T14:33:53.067Z,10.40
2023-01-28T14:36:19.838Z,10.35
2023-01-28T14:38:46.530Z,10.65
2023-01-28T14:41:13.253Z,10.18
2023-01-28T14:43:40.078Z,10.15
2023-01-28T14:46:08.320Z,10.90
2023-01-28T14:48:38.366Z,10.18
2023-01-28T14:51:05.127Z,10.50
2023-01-28T14:53:31.784Z,9.63
2023-01-28T14:55:59.004Z,10.50
2023-01-28T14:58:26.130Z,10.38
2023-01-28T15:00:52.847Z,10.98
2023-01-28T15:03:26.910Z,11.02
2023-01-28T15:05:53.887Z,10.10
2023-01-28T15:08:20.852Z,9.73
2023-01-28T15:10:47.567Z,15.27
2023-01-28T15:13:14.272Z,11.13
2023-01-28T15:15:41.135Z,9.88
2023-01-28T15:18:07.857Z,10.38
2023-01-28T15:20:34.631Z,9.90
2023-01-28T15:23:01.343Z,10.00
2023-01-28T15:25:28.067Z,8.48
2023-01-28T15:27:54.781Z,8.52
2023-01-28T15:30:21.485Z,8.93
2023-01-28T15:32:48.168Z,10.07
2023-01-28T15:35:14.896Z,9.52
2023-01-28T15:37:41.691Z,9.13
2023-01-28T15:40:08.833Z,8.82
2023-01-28T15:42:35.624Z,9.38
2023-01-28T15:45:02.361Z,9.55
2023-01-28T15:47:29.158Z,8.60
2023-01-28T15:49:55.908Z,9.20
2023-01-28T15:52:22.627Z,9.50
2023-01-28T15:54:49.348Z,9.40
2023-01-28T15:57:16.054Z,10.07
2023-01-28T15:59:44.926Z,9.95
2023-01-28T16:02:11.659Z,9.65
2023-01-28T16:04:38.363Z,10.13
2023-01-28T16:07:05.725Z,11.63
2023-01-28T16:09:32.938Z,10.23
2023-01-28T16:11:59.665Z,15.05
2023-01-28T16:14:26.411Z,13.80
2023-01-28T16:16:53.158Z,11.63
2023-01-28T16:19:19.842Z,11.20
2023-01-28T16:21:46.592Z,10.82
2023-01-28T16:24:13.362Z,10.95
2023-01-28T16:26:40.068Z,10.07
2023-01-28T16:29:07.680Z,10.10
2023-01-28T16:31:34.607Z,10.25
2023-01-28T16:34:01.382Z,11.10
2023-01-28T16:36:28.129Z,10.23
2023-01-28T16:38:54.887Z,10.75
2023-01-28T16:41:21.580Z,11.05
2023-01-28T16:43:48.290Z,11.43
2023-01-28T16:46:15.001Z,11.45
2023-01-28T16:48:42.035Z,11.10
2023-01-28T16:51:08.726Z,10.20
2023-01-28T16:53:35.485Z,11.38
2023-01-28T16:56:02.621Z,9.38
2023-01-28T16:58:29.361Z,10.70
2023-01-28T17:00:56.344Z,10.68
2023-01-28T17:03:23.746Z,10.40
2023-01-28T17:05:50.488Z,11.05
2023-01-28T17:08:17.411Z,10.45
2023-01-28T17:10:44.657Z,11.75
2023-01-28T17:13:11.378Z,10.10
2023-01-28T17:15:38.129Z,11.43
2023-01-28T17:18:04.814Z,11.27
2023-01-28T17:20:32.216Z,10.77
2023-01-28T17:22:59.009Z,10.73
2023-01-28T17:25:25.945Z,10.73
2023-01-28T17:27:52.727Z,11.15
2023-01-28T17:30:19.777Z,11.48
2023-01-28T17:32:46.472Z,10.65
2023-01-28T17:35:14.983Z,10.88
2023-01-28T17:37:42.107Z,11.30
2023-01-28T17:40:08.898Z,11.32
2023-01-28T17:42:35.581Z,11.27
2023-01-28T17:45:03.273Z,11.70
2023-01-28T17:47:30.146Z,12.32
2023-01-28T17:49:57.609Z,11.95
2023-01-28T17:52:24.501Z,12.40
2023-01-28T17:54:51.309Z,12.13
2023-01-28T17:57:18.087Z,11.48
2023-01-28T17:59:44.904Z,11.93
2023-01-28T18:02:11.646Z,12.10
2023-01-28T18:04:39.305Z,11.55
2023-01-28T18:07:12.086Z,10.27
2023-01-28T18:09:38.804Z,14.55
2023-01-28T18:12:05.558Z,21.92
2023-01-28T18:14:32.344Z,28.42
2023-01-28T18:16:59.095Z,21.88
2023-01-28T18:19:25.859Z,36.08
2023-01-28T18:21:53.649Z,39.13
2023-01-28T18:24:20.621Z,39.20
2023-01-28T18:26:47.767Z,18.83
2023-01-28T18:29:17.088Z,12.95
2023-01-28T18:31:44.049Z,15.30
2023-01-28T18:34:10.808Z,17.20
2023-01-28T18:36:37.589Z,17.30
2023-01-28T18:39:04.375Z,20.77
2023-01-28T18:41:31.065Z,14.05
2023-01-28T18:43:57.737Z,12.73
2023-01-28T18:46:24.570Z,16.10
2023-01-28T18:48:51.289Z,26.88
2023-01-28T18:51:29.601Z,33.72
2023-01-28T18:53:57.674Z,14.55
2023-01-28T18:56:24.536Z,27.23
2023-01-28T18:58:51.267Z,25.30
2023-01-28T19:01:18.005Z,21.60
2023-01-28T19:03:44.714Z,24.33
2023-01-28T19:06:12.655Z,18.38
2023-01-28T19:08:39.327Z,11.73
2023-01-28T19:11:06.062Z,13.30
2023-01-28T19:13:32.875Z,10.60
2023-01-28T19:15:59.552Z,9.80
2023-01-28T19:18:26.486Z,10.27
2023-01-28T19:20:53.364Z,11.57
2023-01-28T19:23:20.101Z,11.88
2023-01-28T19:25:46.837Z,13.05
2023-01-28T19:28:13.623Z,12.32
2023-01-28T19:30:40.343Z,13.10
2023-01-28T19:33:07.093Z,11.38
2023-01-28T19:35:33.804Z,14.18
2023-01-28T19:38:00.518Z,12.00
2023-01-28T19:40:27.274Z,15.52
2023-01-28T19:42:53.971Z,12.05
2023-01-28T19:45:20.781Z,12.85
2023-01-28T19:47:47.554Z,12.43
2023-01-28T19:50:14.335Z,13.10
2023-01-28T19:52:41.095Z,15.25
2023-01-28T19:55:08.111Z,13.40
2023-01-28T19:57:34.973Z,14.82
2023-01-28T20:00:01.629Z,14.93
2023-01-28T20:02:28.405Z,14.90
2023-01-28T20:05:00.988Z,16.48
2023-01-28T20:07:27.991Z,13.85
2023-01-28T20:09:54.798Z,14.75
2023-01-28T20:12:21.519Z,14.02
2023-01-28T20:14:48.262Z,14.73
2023-01-28T20:17:15.134Z,16.20
2023-01-28T20:19:41.888Z,10.68
2023-01-28T20:22:08.633Z,7.60
2023-01-28T20:24:35.465Z,6.80
2023-01-28T20:27:02.170Z,7.63
2023-01-28T20:29:28.904Z,9.25
2023-01-28T20:32:14.768Z,11.45
2023-01-28T20:34:42.794Z,9.48
2023-01-28T20:37:12.410Z,7.40
2023-01-28T20:39:39.155Z,10.60
2023-01-28T20:42:09.257Z,12.45
2023-01-28T20:44:36.004Z,11.95
2023-01-28T20:47:02.785Z,10.82
2023-01-28T20:49:29.472Z,11.35
2023-01-28T20:51:56.245Z,12.43
2023-01-28T20:54:22.975Z,11.13
2023-01-28T20:56:49.788Z,9.77
2023-01-28T20:59:16.577Z,9.88
2023-01-28T21:01:43.318Z,10.63
2023-01-28T21:04:10.802Z,10.75
2023-01-28T21:06:37.632Z,9.57
2023-01-28T21:09:04.467Z,10.27
2023-01-28T21:11:31.198Z,10.77
2023-01-28T21:13:57.993Z,11.18
2023-01-28T21:16:24.748Z,9.82
2023-01-28T21:18:51.479Z,10.70
2023-01-28T21:21:18.231Z,10.85
2023-01-28T21:23:45.005Z,12.20
2023-01-28T21:26:11.969Z,11.65
2023-01-28T21:28:38.728Z,12.68
2023-01-28T21:31:05.794Z,12.27
2023-01-28T21:33:32.643Z,11.73
2023-01-28T21:35:59.374Z,12.52
2023-01-28T21:38:26.077Z,12.50
2023-01-28T21:40:52.811Z,12.00
2023-01-28T21:43:19.504Z,11.70
2023-01-28T21:45:48.434Z,12.57
2023-01-28T21:48:15.152Z,12.25
2023-01-28T21:51:00.552Z,11.55
2023-01-28T21:53:27.325Z,12.27
2023-01-28T21:55:54.098Z,12.07
2023-01-28T21:58:39.381Z,11.68
2023-01-28T22:01:06.194Z,11.27
2023-01-28T22:03:32.864Z,11.27
2023-01-28T22:05:59.650Z,13.02
2023-01-28T22:08:26.450Z,10.90
2023-01-28T22:10:55.266Z,10.85
2023-01-28T22:13:21.995Z,12.15
2023-01-28T22:15:48.718Z,10.68
2023-01-28T22:18:15.575Z,9.20
2023-01-28T22:20:42.345Z,9.65
2023-01-28T22:23:09.012Z,10.43
2023-01-28T22:25:35.758Z,9.82
2023-01-28T22:28:02.425Z,10.68
2023-01-28T22:30:29.106Z,9.70
2023-01-28T22:32:55.847Z,11.43
2023-01-28T22:35:22.570Z,9.60
2023-01-28T22:37:49.317Z,11.02
2023-01-28T22:40:16.382Z,10.85
2023-01-28T22:42:43.307Z,11.55
2023-01-28T22:45:10.636Z,11.52
2023-01-28T22:47:37.624Z,10.82
2023-01-28T22:50:04.360Z,12.00
2023-01-28T22:52:31.068Z,11.07
2023-01-28T22:54:57.759Z,11.27
2023-01-28T22:57:24.467Z,10.20
2023-01-28T22:59:59.487Z,10.02
2023-01-28T23:02:27.034Z,10.32
2023-01-28T23:04:53.742Z,10.80
2023-01-28T23:07:20.442Z,10.75
2023-01-28T23:09:47.340Z,11.50
2023-01-28T23:12:14.049Z,11.45
2023-01-28T23:14:59.263Z,13.27
2023-01-28T23:17:44.686Z,13.93
2023-01-28T23:20:30.155Z,13.63
2023-01-28T23:23:15.534Z,13.18
2023-01-28T23:25:42.244Z,13.18
2023-01-28T23:28:09.012Z,13.60
2023-01-28T23:30:35.825Z,12.98
2023-01-28T23:33:02.675Z,13.20
2023-01-28T23:35:30.982Z,13.05
2023-01-28T23:37:57.719Z,13.63
2023-01-28T23:40:24.687Z,12.05
2023-01-28T23:42:51.463Z,13.68
2023-01-28T23:45:18.180Z,13.73
2023-01-28T23:47:44.904Z,13.68
2023-01-28T23:50:11.633Z,13.05
2023-01-28T23:52:38.344Z,14.13
2023-01-28T23:55:05.099Z,13.68
2023-01-28T23:57:31.819Z,13.00
2023-01-28T23:59:58.569Z,13.27
